createdAt,value
2023-03-10T00:03:04.104Z,16.00
2023-03-10T00:08:05.964Z,13.05
2023-03-10T00:13:07.428Z,14.40
2023-03-10T00:18:08.859Z,16.15
2023-03-10T00:23:10.289Z,15.93
2023-03-10T00:28:11.704Z,13.85
2023-03-10T00:33:13.093Z,15.77
2023-03-10T00:38:14.506Z,16.67
2023-03-10T00:43:15.952Z,15.15
2023-03-10T00:48:17.368Z,14.00
2023-03-10T00:53:18.959Z,14.80
2023-03-10T00:58:20.402Z,15.98
2023-03-10T01:03:22.205Z,16.25
2023-03-10T01:08:24.052Z,14.07
2023-03-10T01:13:25.467Z,15.85
2023-03-10T01:18:26.913Z,15.02
2023-03-10T01:23:28.447Z,14.98
2023-03-10T01:28:29.835Z,17.08
2023-03-10T01:33:31.238Z,16.33
2023-03-10T01:38:32.681Z,15.15
2023-03-10T01:43:37.871Z,14.57
2023-03-10T01:48:39.382Z,15.95
2023-03-10T01:53:40.936Z,17.88
2023-03-10T01:58:44.483Z,14.48
2023-03-10T02:03:54.362Z,14.88
2023-03-10T02:08:57.945Z,14.90
2023-03-10T02:14:01.274Z,14.40
2023-03-10T02:19:04.453Z,13.13
2023-03-10T02:24:31.624Z,15.88
2023-03-10T02:29:52.501Z,14.23
2023-03-10T02:34:59.868Z,13.45
2023-03-10T02:40:01.444Z,13.30
2023-03-10T02:45:03.774Z,13.27
2023-03-10T02:50:08.455Z,16.08
2023-03-10T02:55:14.711Z,14.30
2023-03-10T03:00:16.304Z,12.82
2023-03-10T03:05:17.938Z,13.10
2023-03-10T03:10:19.778Z,14.30
2023-03-10T03:15:21.196Z,14.65
2023-03-10T03:20:22.653Z,14.13
2023-03-10T03:25:24.918Z,12.10
2023-03-10T03:30:27.015Z,12.05
2023-03-10T03:35:30.520Z,14.07
2023-03-10T03:40:33.662Z,12.82
2023-03-10T03:45:35.158Z,11.93
2023-03-10T03:50:36.614Z,13.20
2023-03-10T03:55:38.053Z,14.82
2023-03-10T04:00:40.192Z,14.27
2023-03-10T04:05:41.848Z,13.55
2023-03-10T04:10:43.311Z,15.20
2023-03-10T04:15:44.756Z,14.90
2023-03-10T04:20:46.185Z,16.40
2023-03-10T04:25:47.641Z,15.02
2023-03-10T04:30:49.068Z,16.42
2023-03-10T04:35:51.636Z,17.60
2023-03-10T04:40:54.131Z,17.85
2023-03-10T04:45:55.599Z,17.25
2023-03-10T04:50:57.867Z,17.52
2023-03-10T04:55:59.978Z,16.55
2023-03-10T05:01:03.527Z,17.10
2023-03-10T05:06:05.534Z,15.23
2023-03-10T05:11:07.375Z,15.25
2023-03-10T05:16:13.495Z,15.93
2023-03-10T05:21:15.044Z,16.10
2023-03-10T05:26:16.933Z,13.55
2023-03-10T05:31:25.811Z,13.27
2023-03-10T05:36:27.335Z,13.30
2023-03-10T05:41:28.797Z,11.65
2023-03-10T05:46:30.537Z,12.80
2023-03-10T05:51:31.962Z,13.57
2023-03-10T05:56:33.641Z,11.00
2023-03-10T06:01:35.193Z,12.32
2023-03-10T06:06:36.914Z,13.00
2023-03-10T06:11:38.465Z,11.98
2023-03-10T06:16:40.000Z,12.63
2023-03-10T06:21:41.434Z,13.65
2023-03-10T06:26:42.857Z,12.50
2023-03-10T06:31:44.366Z,13.38
2023-03-10T06:36:45.809Z,13.30
2023-03-10T06:41:47.298Z,12.85
2023-03-10T06:46:48.677Z,12.40
2023-03-10T06:51:50.070Z,13.70
2023-03-10T06:56:51.499Z,14.73
2023-03-10T07:01:52.908Z,14.55
2023-03-10T07:06:54.574Z,15.10
2023-03-10T07:11:55.989Z,14.88
2023-03-10T07:16:57.751Z,13.95
2023-03-10T07:21:59.248Z,13.50
2023-03-10T07:27:01.159Z,15.13
2023-03-10T07:32:02.989Z,14.82
2023-03-10T07:37:04.450Z,16.25
2023-03-10T07:42:06.125Z,16.48
2023-03-10T07:47:07.571Z,17.80
2023-03-10T07:52:09.351Z,17.70
2023-03-10T07:57:11.669Z,17.73
2023-03-10T08:02:13.696Z,19.40
2023-03-10T08:07:15.148Z,22.35
2023-03-10T08:12:17.120Z,21.42
2023-03-10T08:17:19.781Z,23.85
2023-03-10T08:22:22.665Z,25.88
2023-03-10T08:27:24.143Z,25.08
2023-03-10T08:32:25.637Z,25.40
2023-03-10T08:37:27.112Z,26.00
2023-03-10T08:42:28.605Z,24.08
2023-03-10T08:47:32.289Z,24.08
2023-03-10T08:52:33.918Z,27.17
2023-03-10T08:57:35.508Z,24.52
2023-03-10T09:02:36.909Z,22.90
2023-03-10T09:07:38.370Z,25.45
2023-03-10T09:12:39.808Z,23.50
2023-03-10T09:17:41.246Z,22.80
2023-03-10T09:22:42.718Z,21.27
2023-03-10T09:27:46.598Z,16.30
2023-03-10T09:32:48.264Z,18.13
2023-03-10T09:37:49.737Z,18.00
2023-03-10T09:43:01.757Z,19.08
2023-03-10T09:48:26.201Z,20.23
2023-03-10T09:53:37.205Z,20.25
2023-03-10T09:58:41.100Z,19.55
2023-03-10T10:04:05.062Z,17.73
2023-03-10T10:09:18.861Z,21.10
2023-03-10T10:14:29.597Z,18.02
2023-03-10T10:19:33.729Z,17.40
2023-03-10T10:24:36.390Z,17.27
2023-03-10T10:29:38.695Z,17.52
2023-03-10T10:34:41.676Z,19.92
2023-03-10T10:39:43.273Z,21.40
2023-03-10T10:44:45.150Z,22.17
2023-03-10T10:49:46.608Z,21.80
2023-03-10T10:54:59.130Z,20.90
2023-03-10T11:00:14.230Z,21.00
2023-03-10T11:05:18.058Z,21.17
2023-03-10T11:10:22.005Z,23.63
2023-03-10T11:15:30.001Z,22.13
2023-03-10T11:20:37.231Z,20.55
2023-03-10T11:25:42.652Z,20.40
2023-03-10T11:30:49.505Z,22.30
2023-03-10T11:35:52.028Z,21.38
2023-03-10T11:40:58.539Z,22.05
2023-03-10T11:46:02.299Z,22.70
2023-03-10T11:51:05.019Z,23.55
2023-03-10T11:56:08.210Z,23.30
2023-03-10T12:01:12.051Z,24.33
2023-03-10T12:06:17.121Z,22.25
2023-03-10T12:11:20.858Z,23.55
2023-03-10T12:16:24.123Z,23.30
2023-03-10T12:21:29.634Z,23.40
2023-03-10T12:26:40.965Z,25.13
2023-03-10T12:31:44.561Z,24.02
2023-03-10T12:36:47.605Z,23.65
2023-03-10T12:41:50.673Z,26.25
2023-03-10T12:47:01.589Z,25.42
2023-03-10T12:52:15.210Z,26.02
2023-03-10T12:57:22.803Z,28.30
2023-03-10T13:02:28.362Z,28.05
2023-03-10T13:07:30.581Z,25.27
2023-03-10T13:12:45.944Z,26.90
2023-03-10T13:17:47.398Z,20.55
2023-03-10T13:22:56.026Z,19.48
2023-03-10T13:27:57.670Z,17.38
2023-03-10T13:33:00.173Z,19.52
2023-03-10T13:38:10.667Z,19.23
2023-03-10T13:43:34.033Z,16.55
2023-03-10T13:48:35.611Z,18.63
2023-03-10T13:53:37.221Z,14.65
2023-03-10T13:58:38.697Z,12.20
2023-03-10T14:03:48.514Z,11.90
2023-03-10T14:08:50.436Z,14.65
2023-03-10T14:13:51.887Z,11.98
2023-03-10T14:18:53.336Z,10.60
2023-03-10T14:23:56.965Z,10.85
2023-03-10T14:29:00.303Z,13.77
2023-03-10T14:34:01.672Z,14.75
2023-03-10T14:39:03.088Z,12.90
2023-03-10T14:44:05.361Z,11.18
2023-03-10T14:49:08.324Z,12.13
2023-03-10T14:54:16.418Z,11.15
2023-03-10T14:59:18.269Z,11.05
2023-03-10T15:04:19.810Z,10.95
2023-03-10T15:09:22.766Z,13.65
2023-03-10T15:14:24.363Z,12.73
2023-03-10T15:19:27.064Z,10.90
2023-03-10T15:24:29.013Z,14.10
2023-03-10T15:29:30.699Z,11.25
2023-03-10T15:34:32.300Z,8.85
2023-03-10T15:39:36.886Z,7.75
2023-03-10T15:44:38.822Z,11.13
2023-03-10T15:49:40.214Z,12.45
2023-03-10T15:54:41.626Z,14.70
2023-03-10T15:59:43.263Z,4.13
2023-03-10T16:04:44.855Z,3.30
2023-03-10T16:09:47.432Z,4.00
2023-03-10T16:14:49.120Z,8.75
2023-03-10T16:19:51.078Z,8.75
2023-03-10T16:24:52.678Z,7.20
2023-03-10T16:29:54.083Z,5.75
2023-03-10T16:34:55.499Z,5.07
2023-03-10T16:39:57.633Z,4.93
2023-03-10T16:44:59.124Z,5.97
2023-03-10T16:50:00.581Z,7.20
2023-03-10T16:55:05.129Z,5.85
2023-03-10T17:00:09.331Z,7.47
2023-03-10T17:05:10.949Z,2.85
2023-03-10T17:10:12.375Z,6.53
2023-03-10T17:15:13.893Z,2.20
2023-03-10T17:20:15.526Z,6.03
2023-03-10T17:25:17.210Z,4.43
2023-03-10T17:30:20.075Z,5.68
2023-03-10T17:35:21.552Z,5.40
2023-03-10T17:40:24.040Z,5.55
2023-03-10T17:45:25.427Z,3.83
2023-03-10T17:50:26.847Z,4.47
2023-03-10T17:55:28.272Z,9.25
2023-03-10T18:00:29.717Z,6.40
2023-03-10T18:05:31.233Z,3.90
2023-03-10T18:10:35.433Z,7.15
2023-03-10T18:15:37.599Z,5.38
2023-03-10T18:20:40.408Z,7.13
2023-03-10T18:25:44.875Z,6.30
2023-03-10T18:30:47.918Z,4.75
2023-03-10T18:35:49.344Z,4.93
2023-03-10T18:40:56.128Z,3.00
2023-03-10T18:45:57.981Z,7.15
2023-03-10T18:50:59.988Z,4.13
2023-03-10T18:56:01.380Z,9.75
2023-03-10T19:01:02.809Z,10.98
2023-03-10T19:06:04.554Z,7.60
2023-03-10T19:11:06.860Z,7.32
2023-03-10T19:16:09.493Z,12.75
2023-03-10T19:21:13.007Z,11.02
2023-03-10T19:26:15.476Z,11.20
2023-03-10T19:31:17.032Z,10.65
2023-03-10T19:36:18.652Z,10.48
2023-03-10T19:41:20.531Z,8.80
2023-03-10T19:46:22.029Z,5.00
2023-03-10T19:51:25.100Z,6.90
2023-03-10T19:56:26.900Z,7.35
2023-03-10T20:01:28.870Z,7.82
2023-03-10T20:06:31.558Z,7.25
2023-03-10T20:11:32.979Z,10.32
2023-03-10T20:16:34.665Z,7.82
2023-03-10T20:21:36.228Z,11.93
2023-03-10T20:26:37.907Z,7.88
2023-03-10T20:31:39.436Z,8.18
2023-03-10T20:36:40.901Z,7.88
2023-03-10T20:41:44.926Z,10.75
2023-03-10T20:46:46.583Z,6.57
2023-03-10T20:51:47.996Z,12.25
2023-03-10T20:56:49.450Z,6.05
2023-03-10T21:01:50.864Z,8.63
2023-03-10T21:06:52.369Z,10.63
2023-03-10T21:11:53.847Z,11.35
2023-03-10T21:16:55.392Z,7.13
2023-03-10T21:21:56.849Z,8.07
2023-03-10T21:26:58.370Z,10.98
2023-03-10T21:31:59.796Z,10.77
2023-03-10T21:37:01.256Z,12.07
2023-03-10T21:42:02.787Z,7.40
2023-03-10T21:47:04.407Z,9.68
2023-03-10T21:52:06.089Z,11.48
2023-03-10T21:57:07.503Z,8.80
2023-03-10T22:02:20.582Z,8.30
2023-03-10T22:07:22.229Z,10.70
2023-03-10T22:12:23.700Z,8.02
2023-03-10T22:17:25.742Z,11.52
2023-03-10T22:22:27.220Z,6.70
2023-03-10T22:27:28.625Z,6.72
2023-03-10T22:32:30.073Z,8.48
2023-03-10T22:37:31.544Z,6.20
2023-03-10T22:42:32.973Z,6.53
2023-03-10T22:47:34.407Z,7.18
2023-03-10T22:52:35.859Z,9.27
2023-03-10T22:57:37.256Z,4.35
2023-03-10T23:02:38.837Z,6.78
2023-03-10T23:07:40.339Z,4.50
2023-03-10T23:12:41.806Z,6.47
2023-03-10T23:17:43.547Z,7.78
2023-03-10T23:22:45.865Z,6.80
2023-03-10T23:27:47.369Z,9.77
2023-03-10T23:32:50.109Z,11.00
2023-03-10T23:37:51.653Z,5.57
2023-03-10T23:42:53.554Z,6.65
2023-03-10T23:47:55.612Z,6.90
2023-03-10T23:52:57.010Z,4.35
2023-03-10T23:57:58.515Z,10.85
